LOWILOWS

Guest
Details From LOWI - Innsbruck Kranebitten
To LOWS - Salzburg Maxglan
Flight Number -
Tags generated
Created
Modified
Stats Distance 75 nm / 138 km
Max Altitude 3,800 ft / 1,158 m
Waypoints 3
Social Downloads 2
Likes 0
Share VATSIM

Download

Looking for another format? Having issues loading an existing format? Contact us
Advertisement - Login to hide

Notes

Basic altitude profile: - Ascent Rate: 700ft/min - Ascent Speed: 75kts - Cruise Altitude: 35000ft - Cruise Speed: 120kts - Descent Rate: 1000ft/min - Descent Speed: 100kts Options: - Use NATs: yes - Use PACOTS: yes - Use low airways: yes - Use high airways: no

Route

LOWI LOMRO LOWS

ID Type Via Altitude Latitude Longitude Leg Dist Tot Dist Heading (true) Name
O LOWI APT - 0 ft / 0 m 47.26023˚ 11.34397˚ - 0 nm - Innsbruck Kranebitten
LOMRO FIX - 3,800 ft / 1,158 m 47.66667˚ 12.59694˚ 56 nm 56 nm 64° / 65° -
O LOWS APT - 0 ft / 0 m 47.79333˚ 13.00433˚ 18 nm 74 nm 65° / 65° Salzburg Maxglan

Altitude Profile

Advertisement - Login to hide

LOWI

Details ICAO LOWI (INN)
Name Innsbruck Kranebitten
Region Austria
Timezone Europe/Vienna (UTC+1.0)
Stats Elevation 1,906 ft / 581 m (AMSL)
Location 47.260226° 11.343967°
Runways 1
Magnetic Variation 3.018° E

METAR

LOWI 121150Z 26006KT 9999 -RA FEW005 SCT010 BKN025 04/03 Q1008 NOSIG

Decode

TAF

TAF LOWI 121115Z 1212/1312 09007KT 8000 -RA FEW005 SCT010 BKN020 TX03/1212Z TNM02/1307Z BECMG 1213/1215 27008KT -SN TEMPO 1214/1221 2500 SHSN VV009 BECMG 1221/1223 NSW BKN010 PROB40 1223/1310 OVC005 BECMG 1309/1311 9999 FEW010

Decode

Departure Runways

ID Width Length Bearing (true) Bearing (mag) Surface Threshold Offset Overrun Length
08 148 ft / 45 m 6,545 ft / 1,995 m 81.02° 78.00° Asphalt 338 ft / 103 m 0 ft / 0 m
26 148 ft / 45 m 6,545 ft / 1,995 m 261.04° 258.02° Asphalt 0 ft / 0 m 0 ft / 0 m

LOWS

Details ICAO LOWS (SZG)
Name Salzburg Maxglan
Region Austria
Timezone Europe/Vienna (UTC+1.0)
Stats Elevation 1,411 ft / 430 m (AMSL)
Location 47.793333° 13.004333°
Runways 1
Magnetic Variation 3.427° E

METAR

LOWS 121150Z 30011KT 9999 FEW022 SCT036 BKN060 03/M01 Q1011 NOSIG

Decode

TAF

TAF LOWS 121115Z 1212/1312 32008KT 9999 SCT040 BKN060 TX03/1212Z TNM02/1306Z TEMPO 1212/1215 -RASN BKN035 TEMPO 1215/1224 4000 -SHSN SCT012 BKN025 BECMG 1218/1220 16005KT BECMG 1304/1306 FEW050 SCT120

Decode

Destination Runways

ID Width Length Bearing (true) Bearing (mag) Surface Threshold Offset Overrun Length
16 148 ft / 45 m 9,024 ft / 2,751 m 157.08° 153.65° Concrete 656 ft / 200 m 0 ft / 0 m
34 148 ft / 45 m 9,024 ft / 2,751 m 337.09° 333.66° Concrete 787 ft / 240 m 0 ft / 0 m

Approach Navaids

Runway Type Ident Frequency Range Bearing (true) Bearing (mag) Slope Elevation
16 Localiser OES 109.90 MHz 18 nm / 33 km 157.53° 154.11° - 1,411 ft / 430 m (AMSL)
16 Glidescope OES 109.90 MHz 10 nm / 19 km 157.09° 153.66° 3.00° 1,446 ft / 441 m (AMSL)
16 DME OES 109.90 MHz 18 nm / 33 km - - - 1,446 ft / 441 m (AMSL)

Popular Alternatives